createdAt,value
2023-07-21T00:01:40.099Z,20.96
2023-07-21T00:06:45.356Z,20.84
2023-07-21T00:11:50.011Z,20.55
2023-07-21T00:16:55.627Z,20.59
2023-07-21T00:22:00.481Z,20.69
2023-07-21T00:27:05.618Z,20.67
2023-07-21T00:32:19.633Z,20.89
2023-07-21T00:37:23.903Z,20.63
2023-07-21T00:42:29.119Z,20.82
2023-07-21T00:47:37.815Z,20.68
2023-07-21T00:52:42.533Z,20.61
2023-07-21T00:57:47.071Z,20.44
2023-07-21T01:02:52.941Z,20.33
2023-07-21T01:07:59.312Z,20.26
2023-07-21T01:13:04.326Z,20.27
2023-07-21T01:18:12.388Z,20.09
2023-07-21T01:23:28.508Z,19.84
2023-07-21T01:28:34.681Z,19.86
2023-07-21T01:33:39.750Z,19.70
2023-07-21T01:38:46.277Z,19.71
2023-07-21T01:43:54.670Z,19.95
2023-07-21T01:48:59.822Z,20.06
2023-07-21T01:54:12.189Z,19.92
2023-07-21T01:59:21.472Z,19.84
2023-07-21T02:04:26.508Z,19.53
2023-07-21T02:09:30.715Z,19.20
2023-07-21T02:14:36.964Z,19.13
2023-07-21T02:19:41.346Z,19.21
2023-07-21T02:24:45.666Z,19.47
2023-07-21T02:29:51.361Z,19.28
2023-07-21T02:34:58.021Z,19.20
2023-07-21T02:40:04.943Z,19.37
2023-07-21T02:45:14.201Z,19.44
2023-07-21T02:50:19.855Z,19.50
2023-07-21T02:55:24.455Z,19.62
2023-07-21T03:00:31.033Z,19.64
2023-07-21T03:05:44.249Z,19.37
2023-07-21T03:10:51.109Z,18.79
2023-07-21T03:16:02.134Z,18.71
2023-07-21T03:21:12.301Z,18.82
2023-07-21T03:26:17.125Z,18.49
2023-07-21T03:31:22.902Z,18.71
2023-07-21T03:36:33.713Z,19.04
2023-07-21T03:41:38.037Z,19.15
2023-07-21T03:46:45.961Z,18.76
2023-07-21T03:52:01.543Z,18.47
2023-07-21T03:57:06.923Z,18.75
2023-07-21T04:02:14.177Z,19.04
2023-07-21T04:07:18.357Z,19.29
2023-07-21T04:12:22.492Z,19.45
2023-07-21T04:17:28.988Z,19.55
2023-07-21T04:22:34.331Z,19.61
2023-07-21T04:27:39.337Z,19.34
2023-07-21T04:32:46.904Z,19.18
2023-07-21T04:37:52.250Z,19.36
2023-07-21T04:43:00.770Z,19.62
2023-07-21T04:48:07.900Z,20.16
2023-07-21T04:53:17.927Z,20.47
2023-07-21T04:58:22.076Z,20.63
2023-07-21T05:03:27.841Z,20.78
2023-07-21T05:08:32.620Z,20.99
2023-07-21T05:13:39.543Z,20.96
2023-07-21T05:18:55.549Z,21.36
2023-07-21T05:24:22.438Z,21.51
2023-07-21T05:29:27.485Z,21.48
2023-07-21T05:34:34.605Z,21.63
2023-07-21T05:39:42.740Z,22.13
2023-07-21T05:44:50.350Z,22.12
2023-07-21T05:50:01.889Z,22.16
2023-07-21T05:55:08.970Z,21.99
2023-07-21T06:00:16.921Z,21.78
2023-07-21T06:05:33.552Z,21.84
2023-07-21T06:10:58.573Z,21.85
2023-07-21T06:16:20.419Z,22.00
2023-07-21T06:21:28.145Z,22.17
2023-07-21T06:26:33.345Z,22.15
2023-07-21T06:31:41.843Z,22.38
2023-07-21T06:37:17.014Z,22.55
2023-07-21T06:42:40.801Z,22.70
2023-07-21T06:48:04.418Z,22.94
2023-07-21T06:53:30.074Z,23.19
2023-07-21T06:58:34.411Z,23.35
2023-07-21T07:03:38.840Z,23.64
2023-07-21T07:08:46.007Z,23.73
2023-07-21T07:13:53.122Z,23.86
2023-07-21T07:18:57.584Z,23.98
2023-07-21T07:24:05.182Z,24.26
2023-07-21T07:29:10.984Z,24.45
2023-07-21T07:34:15.473Z,24.76
2023-07-21T07:39:21.301Z,25.00
2023-07-21T07:44:25.725Z,25.25
2023-07-21T07:49:30.523Z,25.50
2023-07-21T07:54:39.929Z,25.85
2023-07-21T08:05:41.902Z,26.42
2023-07-21T08:10:48.807Z,26.67
2023-07-21T08:15:54.216Z,27.28
2023-07-21T08:21:00.310Z,27.57
2023-07-21T08:26:08.535Z,28.05
2023-07-21T08:31:15.152Z,28.03
2023-07-21T08:41:52.896Z,28.85
2023-07-21T08:46:59.514Z,29.24
2023-07-21T08:52:04.098Z,29.58
2023-07-21T08:57:09.995Z,29.89
2023-07-21T09:02:14.395Z,30.16
2023-07-21T09:07:18.533Z,30.30
2023-07-21T09:12:24.052Z,30.46
2023-07-21T09:17:28.234Z,30.35
2023-07-21T09:22:34.582Z,30.59
2023-07-21T09:27:41.808Z,30.78
2023-07-21T09:32:46.284Z,30.67
2023-07-21T09:37:53.089Z,30.79
2023-07-21T09:43:00.504Z,30.99
2023-07-21T09:48:04.896Z,31.76
2023-07-21T09:53:12.124Z,31.98
2023-07-21T09:58:19.317Z,32.14
2023-07-21T10:03:24.417Z,32.25
2023-07-21T10:08:30.128Z,32.39
2023-07-21T10:13:46.176Z,32.29
2023-07-21T10:19:13.462Z,32.38
2023-07-21T10:24:26.441Z,32.48
2023-07-21T10:29:32.389Z,33.00
2023-07-21T10:34:45.097Z,32.55
2023-07-21T10:39:56.056Z,32.79
2023-07-21T10:45:10.887Z,32.74
2023-07-21T10:50:15.111Z,33.09
2023-07-21T10:55:21.049Z,33.43
2023-07-21T11:00:27.031Z,33.78
2023-07-21T11:05:38.447Z,33.90
2023-07-21T11:10:43.410Z,32.93
2023-07-21T11:15:55.615Z,32.70
2023-07-21T11:20:59.880Z,33.12
2023-07-21T11:26:07.795Z,33.58
2023-07-21T11:31:16.465Z,33.97
2023-07-21T11:36:22.984Z,33.42
2023-07-21T11:41:48.626Z,34.11
2023-07-21T11:46:59.999Z,34.16
2023-07-21T11:52:04.567Z,33.90
2023-07-21T11:57:10.889Z,33.73
2023-07-21T12:02:18.562Z,33.44
2023-07-21T12:07:24.085Z,32.89
2023-07-21T12:12:28.713Z,32.71
2023-07-21T12:17:35.421Z,33.30
2023-07-21T12:22:41.618Z,33.44
2023-07-21T12:27:45.902Z,33.65
2023-07-21T12:32:51.899Z,33.51
2023-07-21T12:37:56.571Z,33.85
2023-07-21T12:43:01.014Z,34.14
2023-07-21T12:48:07.253Z,33.74
2023-07-21T12:53:11.668Z,33.77
2023-07-21T12:58:16.506Z,34.18
2023-07-21T13:03:22.379Z,34.05
2023-07-21T13:08:26.973Z,33.42
2023-07-21T13:13:32.991Z,33.46
2023-07-21T13:18:40.563Z,33.89
2023-07-21T13:23:44.696Z,34.07
2023-07-21T13:28:50.210Z,33.42
2023-07-21T13:33:55.806Z,32.59
2023-07-21T13:39:00.024Z,32.51
2023-07-21T13:44:04.387Z,32.89
2023-07-21T13:49:11.612Z,32.69
2023-07-21T13:54:16.074Z,32.70
2023-07-21T13:59:20.251Z,32.89
2023-07-21T14:04:26.030Z,33.13
2023-07-21T14:09:31.897Z,33.42
2023-07-21T14:14:36.710Z,33.61
2023-07-21T14:19:42.755Z,33.45
2023-07-21T14:24:46.946Z,33.34
2023-07-21T14:29:51.546Z,33.41
2023-07-21T14:34:57.509Z,33.46
2023-07-21T14:40:03.954Z,33.02
2023-07-21T14:45:09.627Z,32.77
2023-07-21T14:50:15.317Z,32.65
2023-07-21T14:55:21.969Z,32.60
2023-07-21T15:00:26.715Z,32.88
2023-07-21T15:05:32.731Z,32.80
2023-07-21T15:10:37.530Z,32.79
2023-07-21T15:15:42.522Z,32.69
2023-07-21T15:20:49.292Z,32.66
2023-07-21T15:25:56.473Z,32.75
2023-07-21T15:31:07.817Z,32.41
2023-07-21T15:36:18.093Z,31.99
2023-07-21T15:41:22.848Z,31.88
2023-07-21T15:46:28.820Z,31.56
2023-07-21T15:51:34.986Z,31.22
2023-07-21T15:56:39.497Z,31.11
2023-07-21T16:01:47.720Z,30.90
2023-07-21T16:06:53.794Z,30.87
2023-07-21T16:11:58.257Z,30.87
2023-07-21T16:17:02.402Z,31.21
2023-07-21T16:22:08.601Z,31.20
2023-07-21T16:27:13.363Z,31.08
2023-07-21T16:32:18.760Z,31.24
2023-07-21T16:37:25.099Z,30.92
2023-07-21T16:42:30.943Z,30.85
2023-07-21T16:47:37.084Z,30.70
2023-07-21T16:52:42.721Z,30.67
2023-07-21T16:57:46.916Z,30.55
2023-07-21T17:02:51.540Z,30.58
2023-07-21T17:07:57.458Z,30.43
2023-07-21T17:13:02.304Z,30.34
2023-07-21T17:18:08.374Z,30.21
2023-07-21T17:23:14.777Z,29.86
2023-07-21T17:28:20.516Z,29.70
2023-07-21T17:33:24.856Z,29.57
2023-07-21T17:38:30.979Z,29.33
2023-07-21T17:43:35.835Z,29.17
2023-07-21T17:48:40.163Z,28.96
2023-07-21T17:53:45.851Z,28.80
2023-07-21T17:58:49.932Z,28.83
2023-07-21T18:03:55.396Z,28.53
2023-07-21T18:09:01.462Z,28.28
2023-07-21T18:14:05.664Z,28.21
2023-07-21T18:19:09.806Z,27.81
2023-07-21T18:24:16.744Z,27.58
2023-07-21T18:29:21.353Z,27.50
2023-07-21T18:34:25.704Z,27.30
2023-07-21T18:39:32.531Z,27.32
2023-07-21T18:44:37.805Z,27.15
2023-07-21T18:49:43.128Z,27.05
2023-07-21T18:54:50.114Z,26.95
2023-07-21T18:59:54.426Z,26.80
2023-07-21T19:04:59.580Z,26.65
2023-07-21T19:10:07.802Z,26.37
2023-07-21T19:15:12.350Z,26.29
2023-07-21T19:20:16.863Z,26.27
2023-07-21T19:25:22.723Z,26.23
2023-07-21T19:30:26.958Z,26.13
2023-07-21T19:35:33.509Z,26.06
2023-07-21T19:40:41.602Z,25.93
2023-07-21T19:45:46.661Z,25.98
2023-07-21T19:50:51.298Z,25.78
2023-07-21T19:55:57.712Z,25.83
2023-07-21T20:01:02.044Z,25.88
2023-07-21T20:06:07.153Z,25.79
2023-07-21T20:11:13.017Z,25.56
2023-07-21T20:16:17.423Z,25.62
2023-07-21T20:21:22.870Z,25.50
2023-07-21T20:26:28.784Z,25.46
2023-07-21T20:31:33.195Z,25.54
2023-07-21T20:36:37.784Z,25.56
2023-07-21T20:41:43.392Z,25.48
2023-07-21T20:46:48.075Z,25.29
2023-07-21T20:51:53.985Z,25.38
2023-07-21T20:56:59.551Z,25.25
2023-07-21T21:02:04.008Z,25.22
2023-07-21T21:07:10.070Z,25.29
2023-07-21T21:12:17.621Z,25.15
2023-07-21T21:17:21.961Z,25.01
2023-07-21T21:27:57.169Z,24.99
2023-07-21T21:33:01.369Z,24.97
2023-07-21T21:38:05.856Z,24.92
2023-07-21T21:43:11.403Z,24.83
2023-07-21T21:48:18.038Z,24.91
2023-07-21T21:53:22.245Z,24.80
2023-07-21T21:58:32.362Z,24.80
2023-07-21T22:03:39.357Z,24.82
2023-07-21T22:08:44.503Z,24.73
2023-07-21T22:13:50.107Z,24.66
2023-07-21T22:18:54.301Z,24.73
2023-07-21T22:23:59.030Z,24.71
2023-07-21T22:29:04.657Z,24.69
2023-07-21T22:34:09.036Z,24.80
2023-07-21T22:39:13.248Z,24.65
2023-07-21T22:44:23.578Z,24.47
2023-07-21T22:49:28.116Z,24.65
2023-07-21T22:54:33.322Z,24.51
2023-07-21T22:59:38.887Z,24.40
2023-07-21T23:04:45.132Z,24.07
2023-07-21T23:09:50.326Z,24.13
2023-07-21T23:14:59.206Z,24.26
2023-07-21T23:20:05.446Z,24.08
2023-07-21T23:25:11.401Z,24.19
2023-07-21T23:30:17.741Z,24.28
2023-07-21T23:35:22.056Z,24.02
2023-07-21T23:40:26.399Z,24.21
2023-07-21T23:45:31.909Z,23.96
2023-07-21T23:50:36.228Z,24.17
2023-07-21T23:55:40.781Z,23.77
